createdAt,value
2019-02-18T00:00:50.428Z,96.07
2019-02-18T00:03:18.960Z,95.67
2019-02-18T00:05:47.163Z,95.70
2019-02-18T00:08:15.298Z,95.73
2019-02-18T00:10:43.381Z,95.65
2019-02-18T00:13:11.499Z,95.59
2019-02-18T00:15:39.649Z,95.72
2019-02-18T00:18:07.798Z,95.81
2019-02-18T00:20:36.133Z,94.94
2019-02-18T00:23:04.635Z,94.95
2019-02-18T00:25:32.702Z,95.10
2019-02-18T00:28:00.820Z,95.58
2019-02-18T00:30:28.927Z,94.91
2019-02-18T00:32:57.171Z,94.80
2019-02-18T00:35:25.336Z,95.00
2019-02-18T00:37:53.412Z,94.48
2019-02-18T00:40:22.097Z,95.13
2019-02-18T00:42:50.539Z,94.98
2019-02-18T00:45:18.721Z,94.70
2019-02-18T00:47:48.102Z,95.01
2019-02-18T00:50:16.434Z,94.16
2019-02-18T00:52:44.891Z,94.12
2019-02-18T00:55:12.937Z,93.96
2019-02-18T00:57:41.013Z,94.40
2019-02-18T01:00:11.070Z,93.89
2019-02-18T01:02:39.532Z,94.23
2019-02-18T01:05:08.209Z,94.02
2019-02-18T01:07:36.553Z,94.09
2019-02-18T01:10:05.886Z,94.31
2019-02-18T01:12:33.977Z,94.75
2019-02-18T01:15:04.687Z,93.92
2019-02-18T01:17:33.030Z,94.22
2019-02-18T01:20:01.158Z,94.76
2019-02-18T01:22:29.454Z,95.29
2019-02-18T01:24:57.546Z,95.56
2019-02-18T01:27:26.015Z,96.16
2019-02-18T01:29:54.170Z,96.24
2019-02-18T01:32:22.362Z,96.42
2019-02-18T01:34:50.488Z,96.76
2019-02-18T01:37:18.544Z,96.99
2019-02-18T01:39:46.649Z,96.77
2019-02-18T01:42:16.074Z,96.63
2019-02-18T01:44:44.211Z,96.78
2019-02-18T01:47:12.405Z,96.66
2019-02-18T01:49:41.123Z,96.26
2019-02-18T01:52:09.228Z,96.75
2019-02-18T01:54:38.511Z,96.96
2019-02-18T01:57:06.615Z,97.17
2019-02-18T01:59:34.670Z,97.33
2019-02-18T02:02:02.779Z,98.25
2019-02-18T02:04:30.983Z,98.13
2019-02-18T02:06:59.314Z,98.46
2019-02-18T02:09:27.952Z,98.40
2019-02-18T02:11:56.175Z,98.31
2019-02-18T02:14:24.243Z,98.02
2019-02-18T02:16:52.593Z,98.16
2019-02-18T02:19:20.922Z,98.17
2019-02-18T02:21:49.001Z,97.94
2019-02-18T02:24:17.459Z,97.98
2019-02-18T02:26:45.738Z,98.33
2019-02-18T02:29:13.843Z,98.29
2019-02-18T02:31:42.352Z,97.95
2019-02-18T02:34:11.400Z,98.11
2019-02-18T02:36:39.560Z,98.52
2019-02-18T02:39:07.994Z,98.42
2019-02-18T02:41:36.175Z,98.57
2019-02-18T02:44:04.314Z,98.38
2019-02-18T02:46:32.436Z,98.34
2019-02-18T02:49:01.661Z,99.29
2019-02-18T02:51:30.100Z,99.30
2019-02-18T02:53:58.522Z,99.95
2019-02-18T02:56:26.935Z,99.90
2019-02-18T02:58:55.102Z,100.00
2019-02-18T03:01:23.199Z,100.00
2019-02-18T03:03:51.494Z,100.00
2019-02-18T03:06:19.908Z,100.00
2019-02-18T03:08:48.103Z,99.65
2019-02-18T03:11:16.197Z,99.77
2019-02-18T03:13:44.273Z,99.80
2019-02-18T03:16:12.442Z,99.93
2019-02-18T03:18:40.806Z,100.00
2019-02-18T03:21:09.032Z,100.00
2019-02-18T03:23:37.144Z,100.00
2019-02-18T03:26:05.574Z,100.00
2019-02-18T03:29:29.848Z,100.00
2019-02-18T03:31:58.226Z,100.00
2019-02-18T03:34:40.762Z,100.00
2019-02-18T03:37:08.965Z,100.00
2019-02-18T03:39:37.154Z,100.00
2019-02-18T03:42:05.243Z,100.00
2019-02-18T03:44:33.447Z,100.00
2019-02-18T03:47:01.832Z,100.00
2019-02-18T03:49:29.899Z,100.00
2019-02-18T03:51:58.297Z,100.00
2019-02-18T03:54:26.455Z,100.00
2019-02-18T03:56:54.633Z,100.00
2019-02-18T03:59:22.822Z,100.00
2019-02-18T04:01:51.034Z,100.00
2019-02-18T04:04:19.153Z,100.00
2019-02-18T04:06:47.396Z,100.00
2019-02-18T04:09:15.498Z,100.00
2019-02-18T04:11:43.629Z,100.00
2019-02-18T04:14:11.808Z,100.00
2019-02-18T04:16:40.035Z,100.00
2019-02-18T04:19:08.225Z,100.00
2019-02-18T04:21:36.366Z,100.00
2019-02-18T04:24:04.476Z,100.00
2019-02-18T04:26:32.543Z,100.00
2019-02-18T04:29:00.769Z,100.00
2019-02-18T04:31:29.102Z,100.00
2019-02-18T04:33:57.221Z,100.00
2019-02-18T04:36:25.428Z,100.00
2019-02-18T04:38:54.387Z,100.00
2019-02-18T04:41:22.786Z,100.00
2019-02-18T04:43:51.178Z,100.00
2019-02-18T04:46:19.357Z,100.00
2019-02-18T04:48:47.472Z,100.00
2019-02-18T04:51:15.994Z,100.00
2019-02-18T04:53:44.077Z,100.00
2019-02-18T04:56:12.323Z,100.00
2019-02-18T04:58:40.485Z,100.00
2019-02-18T05:01:08.838Z,100.00
2019-02-18T05:03:36.931Z,100.00
2019-02-18T05:06:05.027Z,100.00
2019-02-18T05:08:33.525Z,100.00
2019-02-18T05:11:02.218Z,100.00
2019-02-18T05:13:30.292Z,100.00
2019-02-18T05:15:58.524Z,100.00
2019-02-18T05:18:26.701Z,100.00
2019-02-18T05:20:55.295Z,100.00
2019-02-18T05:23:23.484Z,100.00
2019-02-18T05:25:51.625Z,100.00
2019-02-18T05:28:19.774Z,100.00
2019-02-18T05:30:47.990Z,100.00
2019-02-18T05:33:16.223Z,100.00
2019-02-18T05:35:44.341Z,100.00
2019-02-18T05:38:12.675Z,100.00
2019-02-18T05:40:40.750Z,100.00
2019-02-18T05:43:09.158Z,100.00
2019-02-18T05:45:37.391Z,100.00
2019-02-18T05:48:05.470Z,100.00
2019-02-18T05:50:33.581Z,100.00
2019-02-18T05:53:02.541Z,100.00
2019-02-18T05:55:31.156Z,100.00
2019-02-18T05:57:59.810Z,100.00
2019-02-18T06:00:29.479Z,100.00
2019-02-18T06:02:58.153Z,100.00
2019-02-18T06:05:26.563Z,100.00
2019-02-18T06:07:54.677Z,100.00
2019-02-18T06:10:22.828Z,100.00
2019-02-18T06:12:51.334Z,100.00
2019-02-18T06:15:19.672Z,100.00
2019-02-18T06:17:47.788Z,100.00
2019-02-18T06:20:16.006Z,100.00
2019-02-18T06:22:44.161Z,100.00
2019-02-18T06:25:12.538Z,100.00
2019-02-18T06:27:40.765Z,100.00
2019-02-18T06:30:09.095Z,100.00
2019-02-18T06:32:37.373Z,100.00
2019-02-18T06:35:05.953Z,100.00
2019-02-18T06:37:34.410Z,100.00
2019-02-18T06:40:02.795Z,100.00
2019-02-18T06:42:30.908Z,100.00
2019-02-18T06:45:20.388Z,100.00
2019-02-18T06:47:48.562Z,100.00
2019-02-18T06:50:17.094Z,100.00
2019-02-18T06:52:45.189Z,100.00
2019-02-18T06:55:13.373Z,100.00
2019-02-18T06:58:04.678Z,100.00
2019-02-18T07:00:44.824Z,100.00
2019-02-18T07:03:21.362Z,100.00
2019-02-18T07:05:57.063Z,100.00
2019-02-18T07:08:43.429Z,100.00
2019-02-18T07:11:16.155Z,100.00
2019-02-18T07:13:44.356Z,100.00
2019-02-18T07:16:12.407Z,100.00
2019-02-18T07:18:40.712Z,100.00
2019-02-18T07:21:08.795Z,100.00
2019-02-18T07:23:37.043Z,100.00
2019-02-18T07:26:05.282Z,100.00
2019-02-18T07:28:33.466Z,100.00
2019-02-18T07:31:01.922Z,100.00
2019-02-18T07:33:30.071Z,100.00
2019-02-18T07:35:58.207Z,100.00
2019-02-18T07:38:26.254Z,100.00
2019-02-18T07:40:54.502Z,100.00
2019-02-18T07:43:23.233Z,100.00
2019-02-18T07:45:51.687Z,100.00
2019-02-18T07:48:19.968Z,100.00
2019-02-18T07:50:48.156Z,99.92
2019-02-18T07:53:16.551Z,99.69
2019-02-18T07:55:44.788Z,99.36
2019-02-18T07:58:13.159Z,98.64
2019-02-18T08:00:41.279Z,98.25
2019-02-18T08:03:09.444Z,98.03
2019-02-18T08:05:37.837Z,97.81
2019-02-18T08:08:05.952Z,97.09
2019-02-18T08:10:34.149Z,96.89
2019-02-18T08:13:02.306Z,96.41
2019-02-18T08:15:30.400Z,96.09
2019-02-18T08:17:58.476Z,95.59
2019-02-18T08:20:26.942Z,95.13
2019-02-18T08:22:55.054Z,94.60
2019-02-18T08:25:23.177Z,94.04
2019-02-18T08:27:51.481Z,92.65
2019-02-18T08:30:19.605Z,91.09
2019-02-18T08:32:47.690Z,89.48
2019-02-18T08:35:16.393Z,87.67
2019-02-18T08:37:44.596Z,86.05
2019-02-18T08:40:21.706Z,85.37
2019-02-18T08:42:42.659Z,84.33
2019-02-18T08:45:15.329Z,83.12
2019-02-18T08:47:43.426Z,82.80
2019-02-18T08:50:11.788Z,82.16
2019-02-18T08:52:39.982Z,81.92
2019-02-18T08:55:10.712Z,81.62
2019-02-18T08:57:38.797Z,81.21
2019-02-18T09:00:13.650Z,81.77
2019-02-18T09:02:42.099Z,81.90
2019-02-18T09:05:10.432Z,80.85
2019-02-18T09:07:40.287Z,80.27
2019-02-18T09:10:10.042Z,79.94
2019-02-18T09:12:38.128Z,79.69
2019-02-18T09:15:07.436Z,79.36
2019-02-18T09:17:36.028Z,78.90
2019-02-18T09:20:06.395Z,78.56
2019-02-18T09:22:53.881Z,78.31
2019-02-18T09:25:44.048Z,77.91
2019-02-18T09:28:13.747Z,77.83
2019-02-18T09:30:44.568Z,77.14
2019-02-18T09:33:13.032Z,76.90
2019-02-18T09:35:41.195Z,77.16
2019-02-18T09:38:09.273Z,77.10
2019-02-18T09:40:45.117Z,75.70
2019-02-18T09:43:07.374Z,75.44
2019-02-18T09:45:35.484Z,74.36
2019-02-18T09:48:05.449Z,73.82
2019-02-18T09:50:33.716Z,73.60
2019-02-18T09:53:02.986Z,73.00
2019-02-18T09:55:31.580Z,72.22
2019-02-18T09:57:59.999Z,70.15
2019-02-18T10:00:28.281Z,69.86
2019-02-18T10:03:04.812Z,69.54
2019-02-18T10:05:32.851Z,69.04
2019-02-18T10:08:01.223Z,67.04
2019-02-18T10:10:29.622Z,66.66
2019-02-18T10:12:59.606Z,65.16
2019-02-18T10:15:27.810Z,66.08
2019-02-18T10:17:56.300Z,65.46
2019-02-18T10:20:24.611Z,64.25
2019-02-18T10:22:52.821Z,64.44
2019-02-18T10:25:20.928Z,62.54
2019-02-18T10:27:50.835Z,63.37
2019-02-18T10:30:20.742Z,63.36
2019-02-18T10:32:49.006Z,62.90
2019-02-18T10:35:17.332Z,63.57
2019-02-18T10:37:54.667Z,61.48
2019-02-18T10:40:15.494Z,61.66
2019-02-18T10:42:43.793Z,61.84
2019-02-18T10:45:12.828Z,62.66
2019-02-18T10:47:40.990Z,62.60
2019-02-18T10:50:10.023Z,63.11
2019-02-18T10:52:38.329Z,63.37
2019-02-18T10:55:07.522Z,62.74
2019-02-18T10:57:35.970Z,62.26
2019-02-18T11:00:08.836Z,62.78
2019-02-18T11:02:37.198Z,61.84
2019-02-18T11:05:06.604Z,62.60
2019-02-18T11:07:34.841Z,61.70
2019-02-18T11:10:05.121Z,61.33
2019-02-18T11:12:33.546Z,61.54
2019-02-18T11:15:01.652Z,59.58
2019-02-18T11:17:38.684Z,59.79
2019-02-18T11:20:09.799Z,60.16
2019-02-18T11:22:38.140Z,60.17
2019-02-18T11:25:07.688Z,60.24
2019-02-18T11:27:37.566Z,59.26
2019-02-18T11:30:09.429Z,58.46
2019-02-18T11:32:37.805Z,58.42
2019-02-18T11:35:06.290Z,57.57
2019-02-18T11:37:34.356Z,54.61
2019-02-18T11:40:02.641Z,56.36
2019-02-18T11:42:30.758Z,55.60
2019-02-18T11:44:59.506Z,55.11
2019-02-18T11:47:28.223Z,55.61
2019-02-18T11:49:56.502Z,55.19
2019-02-18T11:52:24.592Z,55.55
2019-02-18T11:54:52.668Z,54.19
2019-02-18T11:57:20.806Z,54.76
2019-02-18T11:59:49.032Z,55.14
2019-02-18T12:02:17.416Z,54.60
2019-02-18T12:04:45.497Z,54.81
2019-02-18T12:07:13.895Z,53.93
2019-02-18T12:09:42.127Z,53.83
2019-02-18T12:12:10.299Z,53.02
2019-02-18T12:14:39.375Z,53.73
2019-02-18T12:17:07.443Z,53.41
2019-02-18T12:19:36.188Z,51.81
2019-02-18T12:22:04.970Z,51.56
2019-02-18T12:24:33.150Z,52.25
2019-02-18T12:27:01.235Z,50.62
2019-02-18T12:29:29.286Z,51.33
2019-02-18T12:31:58.001Z,50.88
2019-02-18T12:34:26.166Z,50.57
2019-02-18T12:36:54.746Z,50.71
2019-02-18T12:39:22.918Z,50.69
2019-02-18T12:41:51.314Z,51.25
2019-02-18T12:44:19.472Z,51.46
2019-02-18T12:46:47.863Z,51.70
2019-02-18T12:49:16.342Z,50.62
2019-02-18T12:51:45.298Z,49.71
2019-02-18T12:54:13.396Z,50.17
2019-02-18T12:56:41.828Z,50.21
2019-02-18T12:59:10.170Z,48.78
2019-02-18T13:01:39.104Z,49.48
2019-02-18T13:04:07.339Z,49.39
2019-02-18T13:06:35.569Z,48.15
2019-02-18T13:09:05.387Z,48.31
2019-02-18T13:11:33.981Z,48.89
2019-02-18T13:14:02.283Z,48.80
2019-02-18T13:16:31.767Z,49.14
2019-02-18T13:18:59.874Z,49.70
2019-02-18T13:21:28.547Z,49.08
2019-02-18T13:23:56.730Z,47.84
2019-02-18T13:26:25.094Z,47.69
2019-02-18T13:28:53.599Z,47.03
2019-02-18T13:31:22.159Z,46.06
2019-02-18T13:33:50.242Z,46.40
2019-02-18T13:36:19.953Z,46.68
2019-02-18T13:38:48.763Z,46.82
2019-02-18T13:41:17.973Z,45.55
2019-02-18T13:43:46.108Z,44.17
2019-02-18T13:46:14.356Z,45.86
2019-02-18T13:48:42.623Z,46.18
2019-02-18T13:51:11.174Z,46.46
2019-02-18T13:53:39.355Z,46.15
2019-02-18T13:56:07.931Z,45.75
2019-02-18T13:58:36.081Z,44.99
2019-02-18T14:01:05.605Z,45.62
2019-02-18T14:03:33.845Z,45.40
2019-02-18T14:06:02.112Z,45.78
2019-02-18T14:08:30.451Z,45.55
2019-02-18T14:10:58.528Z,46.26
2019-02-18T14:13:27.191Z,45.33
2019-02-18T14:15:55.837Z,45.42
2019-02-18T14:18:23.916Z,45.08
2019-02-18T14:20:52.395Z,45.36
2019-02-18T14:23:20.734Z,45.13
2019-02-18T14:25:48.990Z,46.40
2019-02-18T14:28:18.947Z,46.92
2019-02-18T14:30:47.179Z,47.01
2019-02-18T14:33:17.332Z,46.60
2019-02-18T14:35:46.031Z,46.16
2019-02-18T14:38:14.086Z,45.73
2019-02-18T14:40:42.319Z,45.40
2019-02-18T14:43:10.799Z,46.00
2019-02-18T14:45:39.004Z,46.04
2019-02-18T14:48:08.852Z,45.87
2019-02-18T14:50:36.952Z,46.14
2019-02-18T14:53:05.217Z,46.66
2019-02-18T14:55:33.501Z,46.15
2019-02-18T14:58:03.129Z,47.23
2019-02-18T15:00:31.328Z,47.52
2019-02-18T15:03:01.271Z,47.02
2019-02-18T15:05:29.466Z,46.83
2019-02-18T15:07:57.501Z,46.80
2019-02-18T15:10:25.950Z,47.21
2019-02-18T15:12:54.053Z,47.35
2019-02-18T15:15:22.122Z,48.57
2019-02-18T15:17:50.238Z,47.45
2019-02-18T15:20:18.811Z,47.14
2019-02-18T15:22:47.414Z,49.92
2019-02-18T15:25:15.977Z,49.39
2019-02-18T15:27:45.891Z,48.54
2019-02-18T15:30:15.151Z,50.71
2019-02-18T15:32:43.356Z,50.35
2019-02-18T15:35:11.534Z,50.08
2019-02-18T15:37:39.635Z,50.55
2019-02-18T15:40:08.552Z,50.74
2019-02-18T15:42:42.181Z,51.93
2019-02-18T15:45:07.361Z,51.22
2019-02-18T15:47:35.565Z,51.05
2019-02-18T15:50:04.179Z,51.17
2019-02-18T15:52:32.250Z,51.57
2019-02-18T15:55:00.961Z,52.28
2019-02-18T15:57:29.305Z,52.56
2019-02-18T15:59:57.745Z,52.24
2019-02-18T16:02:25.843Z,53.47
2019-02-18T16:04:54.179Z,54.38
2019-02-18T16:07:22.681Z,54.81
2019-02-18T16:09:50.764Z,55.20
2019-02-18T16:12:18.846Z,55.03
2019-02-18T16:14:47.102Z,55.16
2019-02-18T16:17:15.180Z,55.25
2019-02-18T16:19:43.342Z,56.44
2019-02-18T16:22:11.508Z,57.37
2019-02-18T16:24:40.015Z,57.83
2019-02-18T16:27:08.596Z,58.57
2019-02-18T16:29:36.702Z,59.40
2019-02-18T16:32:05.730Z,59.92
2019-02-18T16:34:34.206Z,60.74
2019-02-18T16:37:02.726Z,61.28
2019-02-18T16:39:30.826Z,61.96
2019-02-18T16:41:59.268Z,62.57
2019-02-18T16:44:27.444Z,62.76
2019-02-18T16:46:55.890Z,63.31
2019-02-18T16:49:23.955Z,63.76
2019-02-18T16:51:52.164Z,64.24
2019-02-18T16:54:20.854Z,64.55
2019-02-18T16:56:49.001Z,64.97
2019-02-18T16:59:17.066Z,65.43
2019-02-18T17:01:45.433Z,65.77
2019-02-18T17:04:13.533Z,66.17
2019-02-18T17:06:42.029Z,66.59
2019-02-18T17:09:13.544Z,66.99
2019-02-18T17:11:41.947Z,67.34
2019-02-18T17:14:10.182Z,67.77
2019-02-18T17:16:38.325Z,68.31
2019-02-18T17:19:06.382Z,68.87
2019-02-18T17:21:34.643Z,69.38
2019-02-18T17:24:02.720Z,69.85
2019-02-18T17:26:30.832Z,70.52
2019-02-18T17:28:58.937Z,70.92
2019-02-18T17:31:27.067Z,71.34
2019-02-18T17:33:55.317Z,72.00
2019-02-18T17:36:23.467Z,72.56
2019-02-18T17:38:51.562Z,73.39
2019-02-18T17:41:19.767Z,73.82
2019-02-18T17:43:48.577Z,74.15
2019-02-18T17:46:16.784Z,74.78
2019-02-18T17:48:44.884Z,75.14
2019-02-18T17:51:13.430Z,75.60
2019-02-18T17:53:41.509Z,76.05
2019-02-18T17:56:09.607Z,76.49
2019-02-18T17:58:37.767Z,76.94
2019-02-18T18:01:06.364Z,76.88
2019-02-18T18:03:34.517Z,77.34
2019-02-18T18:06:02.602Z,77.70
2019-02-18T18:08:30.728Z,78.08
2019-02-18T18:10:59.651Z,78.33
2019-02-18T18:13:27.768Z,78.80
2019-02-18T18:15:55.934Z,78.97
2019-02-18T18:18:24.142Z,79.55
2019-02-18T18:20:52.221Z,79.89
2019-02-18T18:23:20.359Z,79.93
2019-02-18T18:25:48.488Z,80.05
2019-02-18T18:28:16.970Z,80.35
2019-02-18T18:30:45.053Z,80.60
2019-02-18T18:33:13.212Z,81.03
2019-02-18T18:35:41.368Z,80.88
2019-02-18T18:38:09.492Z,81.02
2019-02-18T18:40:37.601Z,80.97
2019-02-18T18:43:05.767Z,81.57
2019-02-18T18:45:33.860Z,81.34
2019-02-18T18:48:02.057Z,81.64
2019-02-18T18:50:30.215Z,81.84
2019-02-18T18:52:58.438Z,81.76
2019-02-18T18:55:26.615Z,81.88
2019-02-18T18:57:55.254Z,81.95
2019-02-18T19:00:23.974Z,82.01
2019-02-18T19:02:52.243Z,82.06
2019-02-18T19:05:20.714Z,82.32
2019-02-18T19:07:48.886Z,82.35
2019-02-18T19:10:17.103Z,82.70
2019-02-18T19:12:45.325Z,82.82
2019-02-18T19:15:13.554Z,82.99
2019-02-18T19:17:41.957Z,83.12
2019-02-18T19:20:11.686Z,83.28
2019-02-18T19:22:39.891Z,83.50
2019-02-18T19:25:08.228Z,83.64
2019-02-18T19:27:36.337Z,83.82
2019-02-18T19:30:06.312Z,84.03
2019-02-18T19:32:34.407Z,84.33
2019-02-18T19:35:02.729Z,84.61
2019-02-18T19:37:30.864Z,84.64
2019-02-18T19:39:59.387Z,84.91
2019-02-18T19:42:27.460Z,85.16
2019-02-18T19:44:55.601Z,85.29
2019-02-18T19:47:23.698Z,85.55
2019-02-18T19:49:51.865Z,85.89
2019-02-18T19:52:20.070Z,86.07
2019-02-18T19:54:48.603Z,87.46
2019-02-18T19:57:16.786Z,88.63
2019-02-18T19:59:46.104Z,89.98
2019-02-18T20:02:14.276Z,90.37
2019-02-18T20:04:42.388Z,90.61
2019-02-18T20:07:10.909Z,91.29
2019-02-18T20:09:39.180Z,90.63
2019-02-18T20:12:07.327Z,90.46
2019-02-18T20:14:35.460Z,90.15
2019-02-18T20:17:03.837Z,89.83
2019-02-18T20:19:31.894Z,90.20
2019-02-18T20:22:00.528Z,90.47
2019-02-18T20:24:28.616Z,90.61
2019-02-18T20:26:56.966Z,90.59
2019-02-18T20:29:25.053Z,90.98
2019-02-18T20:31:53.215Z,91.22
2019-02-18T20:34:21.669Z,91.03
2019-02-18T20:36:49.820Z,91.42
2019-02-18T20:39:18.792Z,91.55
2019-02-18T20:41:47.959Z,91.74
2019-02-18T20:44:16.125Z,91.60
2019-02-18T20:46:44.254Z,91.85
2019-02-18T20:49:12.339Z,92.64
2019-02-18T20:51:40.500Z,93.02
2019-02-18T20:54:09.045Z,93.28
2019-02-18T20:56:37.158Z,94.29
2019-02-18T20:59:05.522Z,94.54
2019-02-18T21:01:33.640Z,93.86
2019-02-18T21:04:01.914Z,92.72
2019-02-18T21:06:30.023Z,92.30
2019-02-18T21:08:58.549Z,90.96
2019-02-18T21:11:26.609Z,91.81
2019-02-18T21:13:55.983Z,92.49
2019-02-18T21:16:25.658Z,93.00
2019-02-18T21:18:53.836Z,93.50
2019-02-18T21:21:21.993Z,93.91
2019-02-18T21:23:50.134Z,94.22
2019-02-18T21:26:18.189Z,94.41
2019-02-18T21:28:46.437Z,94.57
2019-02-18T21:31:14.507Z,94.57
2019-02-18T21:33:42.710Z,94.62
2019-02-18T21:36:10.815Z,94.57
2019-02-18T21:38:38.921Z,94.56
2019-02-18T21:41:07.361Z,93.84
2019-02-18T21:43:35.479Z,93.70
2019-02-18T21:46:03.582Z,93.66
2019-02-18T21:48:32.876Z,93.62
2019-02-18T21:51:00.931Z,93.90
2019-02-18T21:53:29.113Z,93.92
2019-02-18T21:55:57.523Z,93.99
2019-02-18T21:58:25.853Z,94.10
2019-02-18T22:00:53.871Z,94.22
2019-02-18T22:03:22.007Z,94.18
2019-02-18T22:05:50.247Z,94.36
2019-02-18T22:08:18.530Z,94.18
2019-02-18T22:10:46.608Z,94.21
2019-02-18T22:13:14.777Z,94.08
2019-02-18T22:15:42.942Z,93.92
2019-02-18T22:18:11.570Z,93.71
2019-02-18T22:20:39.637Z,93.60
2019-02-18T22:23:07.699Z,93.46
2019-02-18T22:25:35.836Z,93.35
2019-02-18T22:28:03.933Z,93.43
2019-02-18T22:30:32.678Z,93.46
2019-02-18T22:33:00.781Z,93.36
2019-02-18T22:35:29.961Z,93.53
2019-02-18T22:37:58.064Z,94.09
2019-02-18T22:40:26.121Z,93.57
2019-02-18T22:42:54.311Z,93.25
2019-02-18T22:45:24.161Z,93.40
2019-02-18T22:47:53.083Z,93.32
2019-02-18T22:50:21.123Z,93.63
2019-02-18T22:52:49.269Z,93.44
2019-02-18T22:55:17.482Z,93.55
2019-02-18T22:57:45.917Z,93.61
2019-02-18T23:01:02.292Z,93.46
2019-02-18T23:03:30.541Z,93.75
2019-02-18T23:05:58.870Z,93.08
2019-02-18T23:08:26.965Z,93.16
2019-02-18T23:10:55.320Z,93.51
2019-02-18T23:13:23.453Z,93.64
2019-02-18T23:15:51.525Z,93.77
2019-02-18T23:18:20.620Z,93.81
2019-02-18T23:20:48.683Z,93.36
2019-02-18T23:23:16.764Z,92.86
2019-02-18T23:25:44.859Z,92.07
2019-02-18T23:28:12.939Z,92.21
2019-02-18T23:30:41.101Z,91.96
2019-02-18T23:33:09.164Z,91.91
2019-02-18T23:35:38.913Z,92.03
2019-02-18T23:38:07.169Z,91.98
2019-02-18T23:40:35.456Z,91.78
2019-02-18T23:43:03.570Z,91.63
2019-02-18T23:45:31.746Z,91.65
2019-02-18T23:48:00.289Z,91.31
2019-02-18T23:50:28.380Z,91.10
2019-02-18T23:52:57.328Z,91.07
2019-02-18T23:55:26.193Z,90.49
2019-02-18T23:57:54.259Z,90.32
